Time;durP1;ratioP1;P1;durP2;ratioP2;P2;SDS_P1;SDS_P2;PMS_P1;PMS_P2;Temp;Humidity;BMP_temperature;BMP_pressure;BME280_temperature;BME280_humidity;BME280_pressure;Samples;Min_cycle;Max_cycle;Signal;HPM_P1;HPM_P2
2022/03/24 00:02:22;;;;;;;63.03;36.50;;;9.90;92.70;;;;;;5028084;28;20980;-76
2022/03/24 00:04:47;;;;;;;61.72;39.65;;;9.90;93.00;;;;;;5029566;28;20018;-76
2022/03/24 00:07:13;;;;;;;67.63;40.58;;;9.90;92.70;;;;;;5041280;28;20040;-76
2022/03/24 00:09:39;;;;;;;65.10;37.55;;;9.90;93.00;;;;;;5043029;28;20100;-76
2022/03/24 00:12:06;;;;;;;57.90;35.22;;;9.90;92.80;;;;;;5037600;28;20026;-76
2022/03/24 00:14:32;;;;;;;64.07;37.47;;;9.80;93.30;;;;;;5039441;28;20025;-76
2022/03/24 00:16:58;;;;;;;64.00;35.90;;;9.80;92.70;;;;;;5039547;28;20048;-76
2022/03/24 00:19:23;;;;;;;65.28;38.25;;;9.80;92.60;;;;;;5033518;28;20433;-76
2022/03/24 00:21:50;;;;;;;70.03;40.22;;;9.80;93.00;;;;;;5035037;28;20035;-77
2022/03/24 00:24:16;;;;;;;60.45;36.65;;;9.70;92.90;;;;;;5037955;28;20034;-76
2022/03/24 00:26:41;;;;;;;66.25;36.72;;;9.70;93.50;;;;;;5036904;28;20083;-76
2022/03/24 00:29:09;;;;;;;58.67;36.35;;;9.50;93.90;;;;;;5033219;28;20529;-76
2022/03/24 00:31:35;;;;;;;62.25;38.22;;;9.50;93.80;;;;;;5050864;28;20017;-76
2022/03/24 00:34:01;;;;;;;63.33;36.92;;;9.50;93.60;;;;;;5038559;28;20045;-76
2022/03/24 00:36:27;;;;;;;64.25;38.50;;;9.50;93.30;;;;;;5036740;28;20031;-76
2022/03/24 00:38:55;;;;;;;59.55;36.00;;;9.50;92.80;;;;;;5030273;28;20022;-76
2022/03/24 00:41:21;;;;;;;64.85;41.30;;;9.50;92.70;;;;;;5034267;28;20033;-76
2022/03/24 00:43:48;;;;;;;70.82;41.08;;;9.40;93.50;;;;;;5028742;28;20036;-75
2022/03/24 00:46:23;;;;;;;62.05;36.70;;;9.20;93.90;;;;;;5028263;28;20029;-75
2022/03/24 00:48:50;;;;;;;76.55;44.58;;;9.20;94.10;;;;;;5034776;28;20080;-75
2022/03/24 00:51:16;;;;;;;67.35;40.08;;;9.20;94.10;;;;;;5028217;28;20431;-75
2022/03/24 00:53:42;;;;;;;73.70;44.72;;;9.20;93.10;;;;;;5029699;28;20121;-75
2022/03/24 00:56:09;;;;;;;70.07;40.03;;;9.20;93.50;;;;;;5030233;28;20389;-76
2022/03/24 00:58:35;;;;;;;72.88;41.78;;;9.10;93.80;;;;;;5032734;28;20029;-77
2022/03/24 01:01:02;;;;;;;68.00;39.92;;;9.20;94.10;;;;;;5044149;28;20029;-76
2022/03/24 01:03:28;;;;;;;64.88;38.47;;;9.10;93.40;;;;;;5031325;28;20021;-75
2022/03/24 01:05:54;;;;;;;68.00;39.78;;;9.10;93.70;;;;;;5033868;28;20041;-75
2022/03/24 01:08:21;;;;;;;64.30;40.42;;;9.10;93.60;;;;;;5034201;28;20075;-75
2022/03/24 01:10:48;;;;;;;66.03;38.20;;;9.10;93.50;;;;;;5032079;28;20017;-76
2022/03/24 01:13:15;;;;;;;68.00;39.92;;;9.00;94.50;;;;;;5033576;28;20036;-76
2022/03/24 01:15:45;;;;;;;70.32;40.72;;;8.80;94.50;;;;;;5032397;28;20022;-75
2022/03/24 01:18:14;;;;;;;69.65;41.35;;;8.90;94.50;;;;;;5042445;28;20393;-76
2022/03/24 01:20:41;;;;;;;67.13;38.63;;;8.90;93.80;;;;;;5035071;28;20013;-76
2022/03/24 01:23:07;;;;;;;68.55;41.05;;;8.90;94.30;;;;;;5036409;28;20148;-75
2022/03/24 01:25:33;;;;;;;66.43;38.78;;;8.70;94.70;;;;;;5032822;28;20401;-75
2022/03/24 01:27:58;;;;;;;73.55;40.83;;;8.70;94.70;;;;;;5033075;28;20025;-76
2022/03/24 01:30:24;;;;;;;73.63;44.22;;;8.70;94.40;;;;;;5036594;28;20112;-76
2022/03/24 01:32:50;;;;;;;70.10;42.38;;;8.70;94.10;;;;;;5033742;28;20393;-76
2022/03/24 01:35:16;;;;;;;68.97;44.63;;;8.70;94.30;;;;;;5030022;28;20031;-76
2022/03/24 01:37:43;;;;;;;75.45;45.08;;;8.70;93.70;;;;;;5041801;28;20029;-76
2022/03/24 01:40:11;;;;;;;75.13;44.47;;;8.70;94.10;;;;;;5043869;28;20049;-76
2022/03/24 01:42:38;;;;;;;70.43;41.53;;;8.70;93.80;;;;;;5031796;28;20116;-76
2022/03/24 01:45:05;;;;;;;73.18;43.58;;;8.70;93.70;;;;;;5032941;28;20726;-76
2022/03/24 01:47:32;;;;;;;70.05;39.22;;;8.60;93.30;;;;;;5032901;28;20052;-76
2022/03/24 01:49:58;;;;;;;76.47;44.33;;;8.60;93.70;;;;;;5038235;28;20018;-76
2022/03/24 01:52:26;;;;;;;70.78;42.28;;;8.50;93.80;;;;;;5027311;28;20029;-76
2022/03/24 01:54:57;;;;;;;72.20;40.42;;;8.50;94.00;;;;;;5032242;28;20045;-76
2022/03/24 01:57:28;;;;;;;71.25;41.92;;;8.50;94.50;;;;;;5029087;28;20033;-77
2022/03/24 01:59:54;;;;;;;75.70;41.40;;;8.50;94.10;;;;;;5034067;28;20048;-76
2022/03/24 02:02:21;;;;;;;71.43;40.67;;;8.40;94.30;;;;;;5037026;28;20492;-76
2022/03/24 02:04:47;;;;;;;74.10;42.00;;;8.40;94.00;;;;;;5030342;28;20075;-76
2022/03/24 02:07:13;;;;;;;64.55;40.05;;;8.40;94.30;;;;;;5035045;28;20039;-77
2022/03/24 02:09:39;;;;;;;69.03;41.08;;;8.40;94.90;;;;;;5028521;28;20028;-76
2022/03/24 02:12:10;;;;;;;68.65;41.05;;;8.40;94.80;;;;;;5036804;28;20056;-76
2022/03/24 02:14:36;;;;;;;69.95;42.28;;;8.30;94.80;;;;;;5033511;28;20029;-76
2022/03/24 02:17:03;;;;;;;72.15;39.70;;;8.30;94.40;;;;;;5034872;28;20026;-77
2022/03/24 02:19:30;;;;;;;73.22;43.72;;;8.30;94.90;;;;;;5031497;28;20105;-76
2022/03/24 02:22:01;;;;;;;73.90;43.88;;;8.20;94.90;;;;;;5035570;28;20064;-77
2022/03/24 02:24:27;;;;;;;72.30;40.53;;;8.20;94.90;;;;;;5036944;28;20026;-76
2022/03/24 02:26:53;;;;;;;72.97;42.17;;;8.20;94.50;;;;;;5039959;28;22125;-77
2022/03/24 02:29:25;;;;;;;71.13;40.38;;;8.20;94.30;;;;;;5030129;28;20029;-77
2022/03/24 02:31:52;;;;;;;66.55;40.10;;;8.10;94.50;;;;;;5041532;28;20048;-77
2022/03/24 02:34:37;;;;;;;66.30;38.80;;;8.20;94.80;;;;;;5036913;28;20505;-76
2022/03/24 02:37:11;;;;;;;67.70;38.67;;;8.10;94.30;;;;;;5038130;28;20026;-76
2022/03/24 02:39:43;;;;;;;65.15;37.40;;;8.10;94.80;;;;;;5033948;28;20037;-76
2022/03/24 02:42:14;;;;;;;69.37;38.70;;;7.90;95.00;;;;;;5031427;28;20044;-76
2022/03/24 02:44:43;;;;;;;68.22;39.50;;;8.00;94.80;;;;;;5039533;28;20475;-76
2022/03/24 02:47:10;;;;;;;69.65;40.85;;;8.00;95.50;;;;;;5028482;28;20033;-76
2022/03/24 02:49:37;;;;;;;69.38;40.22;;;7.90;95.10;;;;;;5038341;28;20062;-76
2022/03/24 02:52:03;;;;;;;68.00;39.35;;;7.90;95.00;;;;;;5029005;28;20025;-76
2022/03/24 02:54:31;;;;;;;65.80;38.10;;;7.80;94.30;;;;;;5039342;28;20037;-77
2022/03/24 02:56:57;;;;;;;68.00;39.42;;;7.80;95.00;;;;;;5032312;28;20047;-76
2022/03/24 02:59:23;;;;;;;71.60;41.85;;;7.80;95.20;;;;;;5036892;28;20022;-76
2022/03/24 03:01:59;;;;;;;65.05;37.47;;;7.80;94.40;;;;;;5048807;28;20025;-76
2022/03/24 03:04:25;;;;;;;64.47;37.67;;;7.80;94.70;;;;;;5037027;28;20567;-77
2022/03/24 03:06:52;;;;;;;67.20;37.97;;;7.70;95.60;;;;;;5036373;28;20509;-77
2022/03/24 03:09:18;;;;;;;76.15;39.58;;;7.70;94.50;;;;;;5022406;28;20390;-76
2022/03/24 03:11:45;;;;;;;64.72;37.58;;;7.60;95.90;;;;;;5039462;28;20040;-77
2022/03/24 03:14:13;;;;;;;69.47;39.17;;;7.60;95.70;;;;;;5026385;28;20582;-76
2022/03/24 03:16:40;;;;;;;70.00;40.00;;;7.60;95.90;;;;;;5038023;28;20025;-76
2022/03/24 03:19:08;;;;;;;72.55;39.67;;;7.50;94.80;;;;;;5032889;28;20021;-76
2022/03/24 03:21:44;;;;;;;60.88;38.80;;;7.50;95.60;;;;;;5037747;28;20064;-76
2022/03/24 03:24:11;;;;;;;69.30;39.15;;;7.50;95.60;;;;;;5033339;28;20040;-76
2022/03/24 03:26:38;;;;;;;66.93;40.75;;;7.50;95.80;;;;;;5036034;28;20025;-77
2022/03/24 03:29:06;;;;;;;71.53;40.20;;;7.50;96.10;;;;;;5036647;28;20024;-76
2022/03/24 03:31:31;;;;;;;64.88;36.22;;;7.50;95.30;;;;;;5044100;28;20366;-76
2022/03/24 03:33:58;;;;;;;72.32;38.42;;;7.50;95.50;;;;;;5040343;28;20033;-76
2022/03/24 03:36:24;;;;;;;67.38;37.85;;;7.50;95.60;;;;;;5025960;28;20021;-76
2022/03/24 03:38:50;;;;;;;65.63;38.85;;;7.40;95.80;;;;;;5037626;28;20034;-76
2022/03/24 03:41:17;;;;;;;60.33;35.53;;;7.30;95.80;;;;;;5042365;28;20382;-76
2022/03/24 03:43:44;;;;;;;66.47;38.72;;;7.30;96.20;;;;;;5038474;28;20064;-76
2022/03/24 03:46:10;;;;;;;66.53;40.28;;;7.30;96.10;;;;;;5030540;28;20018;-76
2022/03/24 03:48:37;;;;;;;70.75;38.40;;;7.20;95.60;;;;;;5034702;28;20049;-76
2022/03/24 03:51:06;;;;;;;66.32;37.53;;;7.20;96.40;;;;;;5033845;28;20021;-76
2022/03/24 03:53:33;;;;;;;66.85;38.35;;;7.20;96.60;;;;;;5039695;28;20037;-76
2022/03/24 03:55:59;;;;;;;67.10;38.80;;;7.20;96.40;;;;;;5047899;28;20416;-76
2022/03/24 03:58:25;;;;;;;66.55;37.58;;;7.10;95.80;;;;;;5042042;28;20024;-76
2022/03/24 04:00:55;;;;;;;63.55;34.90;;;7.10;96.10;;;;;;5039125;28;20021;-76
2022/03/24 04:03:29;;;;;;;67.97;39.05;;;7.10;95.70;;;;;;5025019;28;20087;-76
2022/03/24 04:05:57;;;;;;;67.30;38.35;;;7.10;95.50;;;;;;5037005;28;20107;-76
2022/03/24 04:08:23;;;;;;;68.38;38.55;;;7.00;96.70;;;;;;5038829;28;20029;-76
2022/03/24 04:10:49;;;;;;;69.00;38.47;;;7.00;96.10;;;;;;5020914;28;20041;-76
2022/03/24 04:13:15;;;;;;;63.85;36.03;;;7.00;97.30;;;;;;5035685;28;20095;-76
2022/03/24 04:15:41;;;;;;;65.80;37.40;;;7.00;96.30;;;;;;5041210;28;20021;-76
2022/03/24 04:18:07;;;;;;;62.45;35.00;;;7.00;95.70;;;;;;5030684;28;20038;-76
2022/03/24 04:20:33;;;;;;;65.75;37.22;;;6.90;96.70;;;;;;5035204;28;20493;-76
2022/03/24 04:23:01;;;;;;;68.88;38.20;;;6.90;96.70;;;;;;5044515;28;20114;-76
2022/03/24 04:25:26;;;;;;;66.60;35.92;;;6.90;96.70;;;;;;5035863;28;20041;-76
2022/03/24 04:27:52;;;;;;;67.95;37.05;;;6.80;96.40;;;;;;5031261;28;20505;-76
2022/03/24 04:30:18;;;;;;;64.95;36.38;;;6.80;97.10;;;;;;5032619;28;20032;-76
2022/03/24 04:32:44;;;;;;;61.00;35.17;;;6.80;97.20;;;;;;5034299;28;20053;-76
2022/03/24 04:35:11;;;;;;;67.63;39.17;;;6.70;97.50;;;;;;5036207;28;20028;-76
2022/03/24 04:37:38;;;;;;;73.18;38.40;;;6.70;96.40;;;;;;5030945;28;20014;-76
2022/03/24 04:40:06;;;;;;;67.55;36.53;;;6.70;96.30;;;;;;5031657;28;20029;-76
2022/03/24 04:42:33;;;;;;;82.47;36.75;;;6.60;97.40;;;;;;5026129;28;20068;-76
2022/03/24 04:44:58;;;;;;;62.28;35.83;;;6.60;96.50;;;;;;5039390;28;20024;-77
2022/03/24 04:47:24;;;;;;;75.03;38.67;;;6.50;96.70;;;;;;5022682;28;20042;-76
2022/03/24 04:49:51;;;;;;;66.93;37.63;;;6.60;97.20;;;;;;5038217;28;20060;-76
2022/03/24 04:52:17;;;;;;;69.85;39.97;;;6.60;96.90;;;;;;5028992;28;20025;-76
2022/03/24 04:54:43;;;;;;;71.13;40.17;;;6.60;96.90;;;;;;5027407;28;20473;-77
2022/03/24 04:57:09;;;;;;;66.97;37.28;;;6.50;96.10;;;;;;5028287;28;20026;-77
2022/03/24 04:59:34;;;;;;;65.38;38.55;;;6.50;96.00;;;;;;5032289;28;20076;-76
2022/03/24 05:02:00;;;;;;;64.22;36.65;;;6.50;97.30;;;;;;5032780;28;20018;-76
2022/03/24 05:04:26;;;;;;;65.53;37.40;;;6.50;97.70;;;;;;5026877;28;20025;-77
2022/03/24 05:06:51;;;;;;;63.90;36.13;;;6.50;97.50;;;;;;5041038;28;20036;-77
2022/03/24 05:09:17;;;;;;;69.82;34.83;;;6.50;97.40;;;;;;5019676;28;20033;-77
2022/03/24 05:11:44;;;;;;;63.42;36.28;;;6.40;97.10;;;;;;5037327;28;20025;-76
2022/03/24 05:14:10;;;;;;;64.88;35.63;;;6.40;97.30;;;;;;5031299;28;20042;-76
2022/03/24 05:16:35;;;;;;;66.05;36.30;;;6.40;97.40;;;;;;5026220;28;20044;-76
2022/03/24 05:19:01;;;;;;;62.03;35.58;;;6.40;97.30;;;;;;5043526;28;20367;-76
2022/03/24 05:21:27;;;;;;;68.38;38.60;;;6.20;98.20;;;;;;5037678;28;20025;-77
2022/03/24 05:23:53;;;;;;;64.30;37.92;;;6.20;97.80;;;;;;5034210;28;20049;-76
2022/03/24 05:26:21;;;;;;;67.45;39.55;;;6.20;97.60;;;;;;5027217;28;20021;-76
2022/03/24 05:28:47;;;;;;;67.40;36.45;;;6.20;96.80;;;;;;5037230;28;20377;-76
2022/03/24 05:31:13;;;;;;;60.30;35.30;;;6.20;97.10;;;;;;5029264;28;20601;-76
2022/03/24 05:33:39;;;;;;;63.92;36.13;;;6.20;97.10;;;;;;5037609;28;20087;-76
2022/03/24 05:36:05;;;;;;;65.40;34.25;;;6.20;97.70;;;;;;5036709;28;20021;-76
2022/03/24 05:38:31;;;;;;;64.43;35.97;;;6.10;98.30;;;;;;5025184;28;20033;-76
2022/03/24 05:40:57;;;;;;;63.97;36.88;;;6.10;97.70;;;;;;5031342;28;20026;-76
2022/03/24 05:43:23;;;;;;;63.13;35.75;;;6.10;98.10;;;;;;5021769;28;20033;-77
2022/03/24 05:45:49;;;;;;;64.68;36.78;;;6.10;97.20;;;;;;5041777;28;20029;-76
2022/03/24 05:48:15;;;;;;;68.15;40.42;;;6.10;97.60;;;;;;5028222;28;20058;-77
2022/03/24 05:50:40;;;;;;;70.18;39.88;;;6.20;97.90;;;;;;5042875;28;20048;-76
2022/03/24 05:53:07;;;;;;;68.30;39.38;;;6.10;97.20;;;;;;5033286;28;20443;-76
2022/03/24 05:55:34;;;;;;;73.80;41.17;;;6.10;98.10;;;;;;5040827;28;20105;-75
2022/03/24 05:58:00;;;;;;;65.65;35.58;;;6.10;97.70;;;;;;5040227;28;20557;-76
2022/03/24 06:00:26;;;;;;;71.45;37.90;;;6.20;98.30;;;;;;5027507;28;20378;-76
2022/03/24 06:02:54;;;;;;;64.90;36.83;;;6.10;97.60;;;;;;5042580;28;20029;-75
2022/03/24 06:05:20;;;;;;;65.45;37.63;;;6.10;97.90;;;;;;5035927;28;20044;-76
2022/03/24 06:07:47;;;;;;;69.60;39.20;;;6.10;97.40;;;;;;5047189;28;20355;-76
2022/03/24 06:10:12;;;;;;;70.65;37.95;;;6.10;98.10;;;;;;5030099;28;20037;-76
2022/03/24 06:12:39;;;;;;;70.72;36.88;;;6.10;98.30;;;;;;5038899;28;20079;-76
2022/03/24 06:15:05;;;;;;;83.47;41.75;;;6.20;97.90;;;;;;5036333;28;20028;-76
2022/03/24 06:17:32;;;;;;;74.18;40.08;;;6.20;98.20;;;;;;5037398;28;20125;-76
2022/03/24 06:19:58;;;;;;;75.70;42.33;;;6.20;97.20;;;;;;5027277;28;20390;-76
2022/03/24 06:22:23;;;;;;;79.35;41.90;;;6.10;97.80;;;;;;5042464;28;20489;-76
2022/03/24 06:24:49;;;;;;;73.45;41.00;;;6.20;98.60;;;;;;5032729;28;20793;-76
2022/03/24 06:27:17;;;;;;;69.53;39.10;;;6.20;98.90;;;;;;5033648;28;20553;-76
2022/03/24 06:29:44;;;;;;;72.22;37.95;;;6.30;98.90;;;;;;5036378;28;20115;-76
2022/03/24 06:32:09;;;;;;;77.05;43.13;;;6.30;99.20;;;;;;5030167;28;20026;-76
2022/03/24 06:34:35;;;;;;;75.40;40.40;;;6.30;98.20;;;;;;5038730;28;20052;-76
2022/03/24 06:37:02;;;;;;;76.05;41.38;;;6.30;98.40;;;;;;5034513;28;20029;-76
2022/03/24 06:39:28;;;;;;;78.07;40.85;;;6.40;99.10;;;;;;5041770;28;20048;-76
2022/03/24 06:41:55;;;;;;;70.53;36.30;;;6.40;99.80;;;;;;5038124;28;20028;-76
2022/03/24 06:44:21;;;;;;;69.88;38.88;;;6.40;99.90;;;;;;5045216;28;20032;-71
2022/03/24 06:46:48;;;;;;;71.88;37.58;;;6.50;98.30;;;;;;5026069;28;20034;-76
2022/03/24 06:49:15;;;;;;;73.28;39.42;;;6.50;99.20;;;;;;5044115;28;20079;-76
2022/03/24 06:51:41;;;;;;;71.90;39.30;;;6.60;99.40;;;;;;5026208;28;20037;-76
2022/03/24 06:54:07;;;;;;;67.18;38.13;;;6.60;99.90;;;;;;5034689;28;20046;-76
2022/03/24 06:56:33;;;;;;;71.25;43.13;;;6.70;99.90;;;;;;5042255;28;20022;-76
2022/03/24 06:58:59;;;;;;;70.60;40.45;;;6.60;99.90;;;;;;5028174;28;20029;-75
2022/03/24 07:01:25;;;;;;;75.30;41.78;;;6.60;99.90;;;;;;5032044;28;20036;-75
2022/03/24 07:03:51;;;;;;;81.18;44.92;;;6.70;99.90;;;;;;5022573;28;20034;-75
2022/03/24 07:06:16;;;;;;;70.35;40.63;;;6.70;99.80;;;;;;5030037;28;20025;-75
2022/03/24 07:08:42;;;;;;;76.28;43.88;;;6.80;99.90;;;;;;5037760;28;20029;-75
2022/03/24 07:11:08;;;;;;;85.97;46.45;;;6.90;99.90;;;;;;5035366;28;20351;-76
2022/03/24 07:13:34;;;;;;;81.97;47.42;;;6.90;99.90;;;;;;5040476;28;20147;-76
2022/03/24 07:16:00;;;;;;;77.97;45.58;;;7.00;99.90;;;;;;5031427;28;20014;-76
2022/03/24 07:18:25;;;;;;;80.35;46.17;;;7.10;99.90;;;;;;5027926;28;20644;-77
2022/03/24 07:20:51;;;;;;;82.45;47.50;;;7.10;99.90;;;;;;5038378;28;20025;-77
2022/03/24 07:23:17;;;;;;;83.75;44.08;;;7.20;99.90;;;;;;5038581;28;20367;-78
2022/03/24 07:25:43;;;;;;;92.03;46.97;;;7.30;99.90;;;;;;5044060;28;20032;-80
2022/03/24 07:28:11;;;;;;;87.47;46.05;;;7.40;99.90;;;;;;5038223;28;20033;-76
2022/03/24 07:30:37;;;;;;;102.13;49.40;;;7.40;99.90;;;;;;5038223;28;20017;-76
2022/03/24 07:33:03;;;;;;;86.18;49.00;;;7.50;99.90;;;;;;5029133;28;20025;-75
2022/03/24 07:35:31;;;;;;;90.53;48.33;;;7.60;99.90;;;;;;5024074;28;20117;-75
2022/03/24 07:37:57;;;;;;;89.03;48.70;;;7.70;99.90;;;;;;5022795;28;20569;-76
2022/03/24 07:40:23;;;;;;;91.20;49.70;;;7.80;99.90;;;;;;5034578;28;20096;-76
2022/03/24 07:42:52;;;;;;;83.93;47.35;;;7.90;99.90;;;;;;5033747;28;20029;-76
2022/03/24 07:45:20;;;;;;;87.63;52.88;;;8.00;99.90;;;;;;5034354;28;20090;-76
2022/03/24 07:48:08;;;;;;;91.63;48.80;;;8.10;99.90;;;;;;5042224;28;20399;-77
2022/03/24 07:50:42;;;;;;;84.30;47.45;;;8.30;99.90;;;;;;5032022;28;20040;-76
2022/03/24 07:53:14;;;;;;;92.90;48.03;;;8.50;99.90;;;;;;5030214;28;20021;-76
2022/03/24 07:55:41;;;;;;;87.63;46.67;;;8.60;99.90;;;;;;5030565;28;20102;-76
2022/03/24 07:58:09;;;;;;;87.75;49.22;;;8.70;99.90;;;;;;5043682;28;20041;-76
2022/03/24 08:00:35;;;;;;;77.90;46.17;;;8.80;99.90;;;;;;5033026;28;20029;-77
2022/03/24 08:03:02;;;;;;;85.88;46.67;;;9.10;99.90;;;;;;5033447;28;20478;-78
2022/03/24 08:05:29;;;;;;;80.15;42.38;;;9.20;99.90;;;;;;5029846;28;20031;-78
2022/03/24 08:07:55;;;;;;;81.35;43.78;;;9.40;99.90;;;;;;5032752;28;20021;-78
2022/03/24 08:10:21;;;;;;;77.45;43.13;;;9.50;99.90;;;;;;5034963;28;20017;-77
2022/03/24 08:12:46;;;;;;;78.88;41.95;;;9.70;99.90;;;;;;5027142;28;20485;-78
2022/03/24 08:15:12;;;;;;;81.47;43.47;;;9.80;99.30;;;;;;5025579;28;20454;-78
2022/03/24 08:17:38;;;;;;;74.75;40.30;;;10.00;98.60;;;;;;5048617;28;20025;-77
2022/03/24 08:20:05;;;;;;;63.85;38.67;;;10.30;97.70;;;;;;5027580;28;20076;-78
2022/03/24 08:22:31;;;;;;;72.95;39.85;;;10.40;97.50;;;;;;5037485;28;20389;-78
2022/03/24 08:24:56;;;;;;;63.72;37.78;;;10.60;96.70;;;;;;5034323;28;20033;-77
2022/03/24 08:27:22;;;;;;;69.65;38.10;;;10.80;96.50;;;;;;5044903;28;20104;-77
2022/03/24 08:29:48;;;;;;;67.05;40.00;;;11.00;96.10;;;;;;5023913;28;20034;-78
2022/03/24 08:32:14;;;;;;;62.53;38.83;;;11.20;96.30;;;;;;5040738;28;20021;-78
2022/03/24 08:34:40;;;;;;;70.57;38.85;;;11.40;96.10;;;;;;5041177;28;20090;-78
2022/03/24 08:37:06;;;;;;;66.68;37.60;;;11.50;95.80;;;;;;5034333;28;20112;-78
2022/03/24 08:39:33;;;;;;;58.58;36.85;;;11.60;94.80;;;;;;5031784;28;20034;-78
2022/03/24 08:41:58;;;;;;;62.60;37.55;;;11.80;94.00;;;;;;5044414;28;20104;-79
2022/03/24 08:44:24;;;;;;;63.05;37.80;;;11.90;92.40;;;;;;5045242;28;20155;-78
2022/03/24 08:46:50;;;;;;;60.00;36.78;;;12.10;94.00;;;;;;5027861;28;20104;-79
2022/03/24 08:49:15;;;;;;;60.83;38.22;;;12.20;94.80;;;;;;5039111;28;20405;-79
2022/03/24 08:51:41;;;;;;;61.15;36.08;;;12.30;94.10;;;;;;5037536;28;20032;-79
2022/03/24 08:54:07;;;;;;;62.05;37.63;;;12.50;92.20;;;;;;5026535;28;20033;-80
2022/03/24 08:56:33;;;;;;;53.72;34.90;;;12.70;92.60;;;;;;5038574;28;20030;-79
2022/03/24 08:58:59;;;;;;;59.67;35.97;;;12.90;92.00;;;;;;5030665;28;20029;-79
2022/03/24 09:01:26;;;;;;;60.67;36.17;;;13.00;91.70;;;;;;5032023;28;20052;-84
2022/03/24 09:03:52;;;;;;;61.65;37.40;;;13.20;92.70;;;;;;5032497;28;20026;-79
2022/03/24 09:06:19;;;;;;;63.70;37.83;;;13.40;92.00;;;;;;5021801;28;20076;-79
2022/03/24 09:08:45;;;;;;;64.38;37.30;;;13.50;91.50;;;;;;5037820;28;20101;-79
2022/03/24 09:11:11;;;;;;;55.22;36.22;;;13.70;91.30;;;;;;5024701;28;20113;-78
2022/03/24 09:13:37;;;;;;;64.20;35.83;;;13.90;91.20;;;;;;5036563;28;20469;-78
2022/03/24 09:16:04;;;;;;;60.42;37.70;;;14.00;91.70;;;;;;5032864;28;20101;-80
2022/03/24 09:18:29;;;;;;;59.78;35.85;;;14.20;91.10;;;;;;5028646;28;20113;-78
2022/03/24 09:20:55;;;;;;;57.55;34.42;;;14.30;90.30;;;;;;5034718;28;20109;-80
2022/03/24 09:23:24;;;;;;;49.05;32.65;;;14.60;89.30;;;;;;5037656;28;20138;-79
2022/03/24 09:25:50;;;;;;;55.75;37.22;;;14.70;88.30;;;;;;5036798;28;20040;-79
2022/03/24 09:28:16;;;;;;;52.75;34.45;;;14.90;88.80;;;;;;5033901;28;20467;-79
2022/03/24 09:30:42;;;;;;;48.42;32.83;;;14.90;89.90;;;;;;5031857;28;20076;-85
2022/03/24 09:33:09;;;;;;;48.75;30.58;;;15.20;87.20;;;;;;5042497;28;20028;-79
2022/03/24 09:35:35;;;;;;;49.90;32.28;;;15.30;87.70;;;;;;5043296;28;20033;-78
2022/03/24 09:38:02;;;;;;;48.70;30.27;;;15.50;86.00;;;;;;5031317;28;20061;-80
2022/03/24 09:40:28;;;;;;;48.15;31.77;;;15.70;84.00;;;;;;5033588;28;20025;-80
2022/03/24 09:42:56;;;;;;;48.92;31.52;;;15.90;83.20;;;;;;5027200;28;20029;-85
2022/03/24 09:45:22;;;;;;;48.92;30.90;;;16.10;79.80;;;;;;5039321;28;20462;-82
2022/03/24 09:47:48;;;;;;;41.67;28.52;;;16.30;80.90;;;;;;5036225;28;20029;-83
2022/03/24 09:50:14;;;;;;;45.33;28.70;;;16.50;80.60;;;;;;5030671;28;20021;-88
2022/03/24 09:52:40;;;;;;;42.67;31.23;;;16.70;78.70;;;;;;5038501;28;20033;-83
2022/03/24 09:55:08;;;;;;;43.50;29.88;;;16.90;80.00;;;;;;5051404;28;20029;-84
2022/03/24 09:57:34;;;;;;;43.78;29.35;;;17.10;80.00;;;;;;5044846;28;20029;-84
2022/03/24 10:00:00;;;;;;;45.65;30.45;;;17.20;78.70;;;;;;5031198;28;20029;-85
2022/03/24 10:02:28;;;;;;;40.35;25.40;;;17.30;76.90;;;;;;5045507;28;20025;-84
2022/03/24 10:05:03;;;;;;;36.50;26.45;;;17.30;73.70;;;;;;5039690;28;20071;-83
2022/03/24 10:07:45;;;;;;;40.08;25.60;;;17.50;72.30;;;;;;5037043;28;20032;-83
2022/03/24 10:10:25;;;;;;;30.00;23.08;;;17.60;70.30;;;;;;5027475;28;20497;-81
2022/03/24 10:12:51;;;;;;;32.13;21.15;;;17.80;71.50;;;;;;5038990;28;20554;-79
2022/03/24 10:15:17;;;;;;;32.03;23.10;;;17.90;65.70;;;;;;5029058;28;20108;-81
2022/03/24 10:17:51;;;;;;;36.78;22.75;;;18.00;67.90;;;;;;5039716;28;20021;-81
2022/03/24 10:20:17;;;;;;;39.75;24.20;;;18.10;68.80;;;;;;5033854;28;20581;-80
2022/03/24 10:23:04;;;;;;;34.70;23.75;;;18.20;69.00;;;;;;5032481;28;20018;-79
2022/03/24 10:25:33;;;;;;;27.23;19.65;;;18.40;68.80;;;;;;5034460;28;20025;-80
2022/03/24 10:28:09;;;;;;;40.40;23.08;;;18.40;64.80;;;;;;5042239;28;20118;-80
2022/03/24 10:30:51;;;;;;;34.85;24.58;;;18.40;64.00;;;;;;5040940;28;20032;-80
2022/03/24 10:33:29;;;;;;;34.40;24.67;;;18.60;63.30;;;;;;5039097;28;20030;-80
2022/03/24 10:36:09;;;;;;;39.30;26.20;;;18.60;67.60;;;;;;5033767;28;20029;-84
2022/03/24 10:38:39;;;;;;;45.30;26.42;;;18.90;66.20;;;;;;5043949;28;20028;-86
2022/03/24 10:41:15;;;;;;;38.88;27.35;;;18.80;68.80;;;;;;5033748;28;20033;-85
2022/03/24 10:43:41;;;;;;;34.42;21.58;;;18.90;66.20;;;;;;5027471;28;20087;-81
2022/03/24 10:46:29;;;;;;;35.55;24.30;;;18.90;64.70;;;;;;5042390;28;20032;-83
2022/03/24 10:48:56;;;;;;;39.95;24.52;;;19.20;66.20;;;;;;5027242;28;20040;-83
2022/03/24 10:51:25;;;;;;;33.42;23.02;;;19.10;63.80;;;;;;5040041;28;20022;-84
2022/03/24 10:53:53;;;;;;;32.65;21.55;;;19.20;66.90;;;;;;5029846;28;20458;-86
2022/03/24 10:56:33;;;;;;;36.47;20.80;;;19.30;63.60;;;;;;5036448;28;20029;-85
2022/03/24 10:59:03;;;;;;;28.73;19.33;;;19.30;64.00;;;;;;5034865;28;20510;-84
2022/03/24 11:01:31;;;;;;;29.50;19.67;;;19.40;67.20;;;;;;5035410;28;20025;-85
2022/03/24 11:03:57;;;;;;;31.35;19.13;;;19.60;65.50;;;;;;5028869;28;20462;-89
2022/03/24 11:06:23;;;;;;;26.75;18.90;;;19.60;66.00;;;;;;5041414;28;20100;-89
2022/03/24 11:08:54;;;;;;;30.80;20.05;;;19.60;64.40;;;;;;5041978;28;20080;-87
2022/03/24 11:11:21;;;;;;;33.50;19.20;;;19.60;63.70;;;;;;5032599;28;20032;-86
2022/03/24 11:14:00;;;;;;;32.50;20.20;;;19.70;64.90;;;;;;5046264;28;20033;-83
2022/03/24 11:16:28;;;;;;;42.17;20.38;;;19.80;68.60;;;;;;5033691;28;20056;-86
2022/03/24 11:18:56;;;;;;;35.58;20.40;;;19.80;61.80;;;;;;5043272;28;20025;-85
2022/03/24 11:21:40;;;;;;;30.73;20.38;;;19.90;65.10;;;;;;5026204;28;20022;-86
2022/03/24 11:24:06;;;;;;;33.90;20.13;;;20.00;63.40;;;;;;5038214;28;20493;-85
2022/03/24 11:26:34;;;;;;;32.40;20.75;;;20.00;62.50;;;;;;5033803;28;20033;-84
2022/03/24 11:29:00;;;;;;;34.80;20.85;;;20.00;59.90;;;;;;5036315;28;20032;-82
2022/03/24 11:31:31;;;;;;;32.70;20.25;;;20.00;62.30;;;;;;5042115;28;20021;-86
2022/03/24 11:34:00;;;;;;;27.90;17.48;;;20.00;60.00;;;;;;5037463;28;20052;-82
2022/03/24 11:36:28;;;;;;;30.50;17.50;;;20.00;60.10;;;;;;5025962;28;20018;-82
2022/03/24 11:38:56;;;;;;;27.67;16.95;;;20.00;58.20;;;;;;5028752;28;20076;-85
2022/03/24 11:41:42;;;;;;;32.63;16.55;;;20.10;60.80;;;;;;5038240;28;20024;-85
2022/03/24 11:44:11;;;;;;;27.75;20.58;;;20.20;57.80;;;;;;5026796;28;20025;-83
2022/03/24 11:46:54;;;;;;;25.95;18.55;;;20.20;57.40;;;;;;5022668;28;20026;-82
2022/03/24 11:49:26;;;;;;;27.30;18.35;;;20.30;58.30;;;;;;5036311;28;20558;-83
2022/03/24 11:51:58;;;;;;;32.20;17.13;;;20.30;58.10;;;;;;5046362;28;20029;-86
2022/03/24 11:54:52;;;;;;;28.98;20.27;;;20.30;60.00;;;;;;5018686;28;20523;-85
2022/03/24 11:57:25;;;;;;;25.88;18.25;;;20.30;58.60;;;;;;5031140;28;20033;-80
2022/03/24 12:00:13;;;;;;;27.25;17.42;;;20.30;56.90;;;;;;5034466;28;20036;-81
2022/03/24 12:03:01;;;;;;;29.27;16.55;;;20.30;57.20;;;;;;5032608;28;20484;-81
2022/03/24 12:05:56;;;;;;;30.95;16.95;;;20.20;55.20;;;;;;5026793;28;20508;-79
2022/03/24 12:08:29;;;;;;;22.20;16.00;;;20.30;57.30;;;;;;5026282;28;20129;-79
2022/03/24 12:10:55;;;;;;;21.17;15.43;;;20.40;55.30;;;;;;5034420;28;20083;-80
2022/03/24 12:13:22;;;;;;;29.83;18.58;;;20.50;57.20;;;;;;5032051;28;20095;-79
2022/03/24 12:16:13;;;;;;;28.52;19.60;;;20.50;56.40;;;;;;5036504;28;20478;-86
2022/03/24 12:18:40;;;;;;;23.30;16.58;;;20.50;55.30;;;;;;5042523;28;20017;-81
2022/03/24 12:21:06;;;;;;;23.30;16.52;;;20.50;54.50;;;;;;5023975;28;20112;-82
2022/03/24 12:24:09;;;;;;;26.58;16.80;;;20.50;55.10;;;;;;5038150;28;20108;-84
2022/03/24 12:26:39;;;;;;;29.70;18.23;;;20.50;53.90;;;;;;5025564;28;20128;-82
2022/03/24 12:29:11;;;;;;;27.33;18.13;;;20.50;54.20;;;;;;5029927;28;20032;-83
2022/03/24 12:32:02;;;;;;;25.83;17.05;;;20.50;54.80;;;;;;5033852;28;20108;-78
2022/03/24 12:34:44;;;;;;;21.35;15.68;;;20.60;54.10;;;;;;5033526;28;20030;-80
2022/03/24 12:37:30;;;;;;;21.90;15.57;;;20.60;56.30;;;;;;5035779;28;20068;-73
2022/03/24 12:40:16;;;;;;;23.00;16.02;;;20.70;56.00;;;;;;5041704;28;20029;-73